Time;durP1;ratioP1;P1;durP2;ratioP2;P2;SDS_P1;SDS_P2;PMS_P1;PMS_P2;Temp;Humidity;BMP_temperature;BMP_pressure;BME280_temperature;BME280_humidity;BME280_pressure;Samples;Min_cycle;Max_cycle;Signal;HPM_P1;HPM_P2
2024/02/26 00:00:58;;;;;;;15.97;11.67;;;;;21.90;98791.00;;;;2037374;28;20201;-67
2024/02/26 00:01:58;;;;;;;17.60;12.00;;;;;21.70;98750.00;;;;2046962;29;20204;-67
2024/02/26 00:02:59;;;;;;;15.50;10.97;;;;;21.90;98780.00;;;;2050222;28;20204;-67
2024/02/26 00:03:59;;;;;;;17.30;11.90;;;;;21.90;98781.00;;;;2038897;29;20224;-67
2024/02/26 00:04:59;;;;;;;16.77;11.60;;;;;21.90;98793.00;;;;2044178;28;20227;-67
2024/02/26 00:06:00;;;;;;;16.23;10.97;;;;;21.90;98780.00;;;;2040712;28;20207;-67
2024/02/26 00:07:00;;;;;;;15.60;11.07;;;;;21.90;98798.00;;;;2049811;28;20207;-67
2024/02/26 00:08:00;;;;;;;16.77;12.47;;;;;21.90;98801.00;;;;2049889;28;20227;-67
2024/02/26 00:09:02;;;;;;;17.30;11.33;;;;;21.90;98807.00;;;;2050316;28;20211;-67
2024/02/26 00:10:03;;;;;;;16.65;11.70;;;;;21.90;98796.00;;;;2048641;28;20254;-67
2024/02/26 00:11:04;;;;;;;16.20;11.27;;;;;21.90;98809.00;;;;2039626;28;20216;-67
2024/02/26 00:12:04;;;;;;;16.80;11.50;;;;;21.90;98804.00;;;;2049612;28;20774;-67
2024/02/26 00:13:04;;;;;;;16.87;11.17;;;;;21.90;98804.00;;;;2049443;28;20545;-67
2024/02/26 00:14:05;;;;;;;14.10;10.10;;;;;21.90;98806.00;;;;2049727;28;20204;-67
2024/02/26 00:15:09;;;;;;;16.63;10.83;;;;;21.90;98802.00;;;;2052753;28;20295;-67
2024/02/26 00:16:09;;;;;;;16.42;10.43;;;;;21.90;98804.00;;;;2021935;29;20253;-67
2024/02/26 00:17:09;;;;;;;15.53;10.43;;;;;21.90;98799.00;;;;2039383;29;20212;-67
2024/02/26 00:18:10;;;;;;;14.40;10.40;;;;;21.80;98798.00;;;;2050208;28;20208;-67
2024/02/26 00:19:10;;;;;;;16.57;10.90;;;;;21.80;98794.00;;;;2051437;28;20271;-67
2024/02/26 00:20:11;;;;;;;17.30;10.67;;;;;21.80;98793.00;;;;2053570;28;20192;-67
2024/02/26 00:21:11;;;;;;;13.90;9.93;;;;;21.80;98803.00;;;;2039912;29;20247;-67
2024/02/26 00:22:11;;;;;;;16.30;10.60;;;;;21.80;98797.00;;;;2047738;28;20208;-67
2024/02/26 00:23:15;;;;;;;12.70;9.80;;;;;21.90;98801.00;;;;2050278;28;20204;-67
2024/02/26 00:24:15;;;;;;;16.40;9.50;;;;;21.80;98802.00;;;;2052538;28;20713;-67
2024/02/26 00:25:15;;;;;;;15.73;10.63;;;;;21.80;98802.00;;;;2052683;28;20290;-67
2024/02/26 00:26:16;;;;;;;14.10;9.90;;;;;21.80;98803.00;;;;2042260;28;20219;-67
2024/02/26 00:27:16;;;;;;;15.33;9.67;;;;;21.80;98801.00;;;;2057426;28;20243;-67
2024/02/26 00:28:16;;;;;;;12.87;9.40;;;;;21.80;98800.00;;;;2043944;29;20294;-67
2024/02/26 00:29:17;;;;;;;13.17;9.53;;;;;21.80;98803.00;;;;2047106;28;20232;-67
2024/02/26 00:30:17;;;;;;;12.43;8.80;;;;;21.80;98805.00;;;;2049432;28;20227;-67
2024/02/26 00:31:17;;;;;;;13.47;8.83;;;;;21.80;98741.00;;;;2038975;28;20227;-67
2024/02/26 00:32:18;;;;;;;11.63;8.73;;;;;21.80;98806.00;;;;2050125;28;20227;-67
2024/02/26 00:33:18;;;;;;;12.90;9.00;;;;;21.80;98805.00;;;;2049672;28;20300;-67
2024/02/26 00:34:18;;;;;;;14.37;8.67;;;;;21.80;98798.00;;;;2049799;28;20240;-67
2024/02/26 00:35:20;;;;;;;13.33;9.10;;;;;21.80;98794.00;;;;2050258;28;20228;-67
2024/02/26 00:36:20;;;;;;;11.93;8.80;;;;;21.80;98803.00;;;;2040267;28;20219;-67
2024/02/26 00:37:21;;;;;;;11.97;7.97;;;;;21.80;98800.00;;;;2050251;28;20265;-67
2024/02/26 00:38:21;;;;;;;13.23;8.53;;;;;21.80;98802.00;;;;2049698;28;20272;-67
2024/02/26 00:39:21;;;;;;;12.87;8.93;;;;;21.80;98797.00;;;;2049595;28;20220;-67
2024/02/26 00:40:22;;;;;;;14.70;8.63;;;;;21.80;98795.00;;;;2049411;29;20250;-67
2024/02/26 00:41:23;;;;;;;11.57;8.20;;;;;21.80;98805.00;;;;2039366;28;20224;-67
2024/02/26 00:42:23;;;;;;;12.35;8.25;;;;;21.80;98796.00;;;;2049495;29;20271;-67
2024/02/26 00:43:23;;;;;;;11.47;6.87;;;;;21.80;98795.00;;;;2047883;28;20248;-67
2024/02/26 00:44:24;;;;;;;10.90;7.57;;;;;21.80;98792.00;;;;2049603;28;20270;-67
2024/02/26 00:45:24;;;;;;;11.13;8.30;;;;;21.80;98794.00;;;;2044729;28;20221;-67
2024/02/26 00:46:24;;;;;;;11.60;7.53;;;;;21.80;98792.00;;;;2040577;28;20219;-67
2024/02/26 00:47:25;;;;;;;11.30;8.17;;;;;21.80;98788.00;;;;2050325;28;20227;-67
2024/02/26 00:48:25;;;;;;;10.97;8.00;;;;;21.80;98795.00;;;;2049328;28;20240;-67
2024/02/26 00:49:26;;;;;;;11.90;7.93;;;;;21.80;98788.00;;;;2050185;28;20226;-67
2024/02/26 00:50:26;;;;;;;11.37;8.03;;;;;21.80;98756.00;;;;2048263;28;20220;-67
2024/02/26 00:51:27;;;;;;;13.57;8.10;;;;;21.70;98787.00;;;;2040648;28;20215;-67
2024/02/26 00:52:27;;;;;;;11.93;7.63;;;;;21.80;98795.00;;;;2049568;28;20228;-67
2024/02/26 00:53:29;;;;;;;11.50;7.73;;;;;21.80;98800.00;;;;2049466;28;20227;-67
2024/02/26 00:54:30;;;;;;;10.75;7.10;;;;;21.80;98784.00;;;;2049919;28;20228;-67
2024/02/26 00:55:30;;;;;;;12.63;7.60;;;;;21.70;98784.00;;;;2049424;28;20328;-67
2024/02/26 00:56:30;;;;;;;11.30;7.77;;;;;21.70;98780.00;;;;2037903;28;20667;-67
2024/02/26 00:57:31;;;;;;;13.50;8.27;;;;;21.80;98783.00;;;;2050282;28;20689;-67
2024/02/26 00:58:32;;;;;;;10.17;7.40;;;;;21.70;98780.00;;;;2050114;28;20631;-67
2024/02/26 00:59:32;;;;;;;11.05;7.32;;;;;21.70;98774.00;;;;2050025;28;20295;-67
2024/02/26 01:00:33;;;;;;;10.10;7.00;;;;;21.70;98773.00;;;;2049592;28;20227;-67
2024/02/26 01:01:33;;;;;;;9.50;6.60;;;;;21.70;98767.00;;;;2040661;28;20247;-67
2024/02/26 01:02:34;;;;;;;10.87;7.30;;;;;21.70;98770.00;;;;2043308;28;20223;-67
2024/02/26 01:03:34;;;;;;;10.50;6.17;;;;;21.70;98765.00;;;;2050039;28;20208;-67
2024/02/26 01:04:34;;;;;;;11.23;6.90;;;;;21.70;98772.00;;;;2048824;28;20687;-67
2024/02/26 01:05:35;;;;;;;9.90;6.27;;;;;21.70;98772.00;;;;2050296;28;20219;-67
2024/02/26 01:06:35;;;;;;;11.40;7.50;;;;;21.70;98773.00;;;;2043359;28;20226;-67
2024/02/26 01:07:35;;;;;;;8.97;6.00;;;;;21.70;98774.00;;;;2061349;28;20246;-67
2024/02/26 01:08:37;;;;;;;11.63;6.50;;;;;21.70;98779.00;;;;2057343;28;20231;-67
2024/02/26 01:09:37;;;;;;;10.75;6.90;;;;;21.70;98792.00;;;;2051973;28;20249;-67
2024/02/26 01:10:38;;;;;;;8.50;6.03;;;;;21.70;98796.00;;;;2042385;28;20680;-67
2024/02/26 01:11:38;;;;;;;10.97;6.90;;;;;21.70;98779.00;;;;2040581;28;20583;-67
2024/02/26 01:12:38;;;;;;;8.10;5.70;;;;;21.70;98776.00;;;;2049822;28;20946;-67
2024/02/26 01:13:38;;;;;;;9.30;6.37;;;;;21.70;98759.00;;;;2049877;28;20682;-67
2024/02/26 01:14:39;;;;;;;8.40;5.83;;;;;21.70;98782.00;;;;2048093;28;20291;-67
2024/02/26 01:15:39;;;;;;;9.30;6.43;;;;;21.70;98770.00;;;;2050025;28;20684;-67
2024/02/26 01:16:40;;;;;;;8.23;5.50;;;;;21.70;98770.00;;;;2038029;28;20967;-67
2024/02/26 01:17:40;;;;;;;9.50;5.93;;;;;21.70;98784.00;;;;2047684;29;20226;-67
2024/02/26 01:18:40;;;;;;;9.23;5.57;;;;;21.70;98781.00;;;;2048859;28;20216;-67
2024/02/26 01:19:41;;;;;;;7.73;5.40;;;;;21.70;98781.00;;;;2047476;28;20223;-67
2024/02/26 01:20:41;;;;;;;8.10;5.00;;;;;21.60;98782.00;;;;2048106;29;20220;-67
2024/02/26 01:21:41;;;;;;;9.23;5.93;;;;;21.70;98779.00;;;;2043895;28;20208;-67
2024/02/26 01:22:42;;;;;;;8.50;5.80;;;;;21.70;98784.00;;;;2048184;28;20216;-67
2024/02/26 01:23:42;;;;;;;8.37;5.40;;;;;21.70;98792.00;;;;2041769;28;20289;-67
2024/02/26 01:24:43;;;;;;;9.90;6.03;;;;;21.70;98793.00;;;;2049050;28;20484;-67
2024/02/26 01:25:43;;;;;;;8.13;5.40;;;;;21.60;98785.00;;;;2048673;28;20215;-67
2024/02/26 01:26:43;;;;;;;8.57;5.80;;;;;21.70;98794.00;;;;2039956;28;20211;-67
2024/02/26 01:27:44;;;;;;;7.73;5.10;;;;;21.70;98796.00;;;;2053218;28;20258;-67
2024/02/26 01:28:44;;;;;;;7.47;5.20;;;;;21.70;98727.00;;;;2047883;28;20264;-67
2024/02/26 01:29:45;;;;;;;8.10;5.10;;;;;21.70;98800.00;;;;2048768;28;20232;-67
2024/02/26 01:30:45;;;;;;;7.67;5.30;;;;;21.60;98701.00;;;;2047418;28;20767;-67
2024/02/26 01:31:45;;;;;;;7.23;5.10;;;;;21.60;98795.00;;;;2045396;28;20224;-67
2024/02/26 01:32:46;;;;;;;8.33;5.50;;;;;21.70;98800.00;;;;2048751;28;20642;-67
2024/02/26 01:33:46;;;;;;;6.87;4.90;;;;;21.70;98795.00;;;;2047492;28;20243;-67
2024/02/26 01:34:46;;;;;;;6.37;4.90;;;;;21.60;98797.00;;;;2048666;28;20216;-67
2024/02/26 01:35:47;;;;;;;9.13;5.03;;;;;21.60;98795.00;;;;2047646;28;20212;-67
2024/02/26 01:36:47;;;;;;;7.10;4.60;;;;;21.60;98802.00;;;;2039814;29;20358;-67
2024/02/26 01:37:47;;;;;;;8.90;5.10;;;;;21.60;98795.00;;;;2047909;29;20214;-67
2024/02/26 01:38:48;;;;;;;7.57;4.90;;;;;21.60;98792.00;;;;2048353;28;20830;-67
2024/02/26 01:39:48;;;;;;;7.43;4.87;;;;;21.60;98792.00;;;;2048561;28;20726;-67
2024/02/26 01:40:48;;;;;;;7.17;4.90;;;;;21.60;98799.00;;;;2039646;28;20240;-67
2024/02/26 01:41:49;;;;;;;7.33;5.00;;;;;21.60;98799.00;;;;2048631;28;20216;-67
2024/02/26 01:42:49;;;;;;;7.00;4.43;;;;;21.60;98793.00;;;;2049404;28;20227;-67
2024/02/26 01:43:49;;;;;;;8.57;5.50;;;;;21.60;98796.00;;;;2047294;29;20331;-67
2024/02/26 01:44:50;;;;;;;9.10;5.37;;;;;21.60;98800.00;;;;2047646;29;20284;-67
2024/02/26 01:45:50;;;;;;;7.10;4.63;;;;;21.60;98788.00;;;;2038687;28;20212;-67
2024/02/26 01:46:50;;;;;;;6.60;4.37;;;;;21.60;98777.00;;;;2048575;28;20722;-67
2024/02/26 01:47:51;;;;;;;6.13;4.37;;;;;21.60;98718.00;;;;2047348;28;20262;-67
2024/02/26 01:48:51;;;;;;;7.23;5.20;;;;;21.60;98798.00;;;;2038500;29;20233;-67
2024/02/26 01:49:52;;;;;;;6.77;4.80;;;;;21.60;98720.00;;;;2047267;28;20220;-67
2024/02/26 01:50:52;;;;;;;6.93;4.40;;;;;21.60;98765.00;;;;2038227;28;20216;-67
2024/02/26 01:51:52;;;;;;;8.27;4.07;;;;;21.60;98791.00;;;;2047838;28;20239;-67
2024/02/26 01:52:53;;;;;;;6.87;4.40;;;;;21.60;98795.00;;;;2047223;28;20220;-67
2024/02/26 01:53:53;;;;;;;6.80;4.20;;;;;21.60;98795.00;;;;2047582;29;20283;-67
2024/02/26 01:54:53;;;;;;;6.20;3.77;;;;;21.60;98794.00;;;;2047826;28;20718;-67
2024/02/26 01:55:54;;;;;;;5.93;3.80;;;;;21.60;98791.00;;;;2044793;28;20219;-67
2024/02/26 01:56:54;;;;;;;7.60;3.97;;;;;21.60;98799.00;;;;2045028;28;20216;-67
2024/02/26 01:57:54;;;;;;;6.80;4.07;;;;;21.60;98800.00;;;;2039948;29;20748;-67
2024/02/26 01:58:55;;;;;;;7.40;4.30;;;;;21.60;98798.00;;;;2046147;29;21104;-67
2024/02/26 01:59:55;;;;;;;5.77;4.30;;;;;21.60;98729.00;;;;2044769;28;20224;-67
2024/02/26 02:00:55;;;;;;;6.47;4.00;;;;;21.50;98768.00;;;;2038202;29;20224;-67
2024/02/26 02:01:57;;;;;;;5.80;3.83;;;;;21.50;98798.00;;;;2046700;28;20307;-67
2024/02/26 02:02:58;;;;;;;5.95;3.80;;;;;21.50;98796.00;;;;2039928;29;20307;-67
2024/02/26 02:03:58;;;;;;;6.97;4.33;;;;;21.60;98753.00;;;;2047105;28;20223;-67
2024/02/26 02:04:59;;;;;;;7.47;4.40;;;;;21.50;98795.00;;;;2048474;28;20228;-67
2024/02/26 02:05:59;;;;;;;5.30;3.47;;;;;21.50;98793.00;;;;2039056;28;20983;-67
2024/02/26 02:07:00;;;;;;;6.37;3.90;;;;;21.60;98802.00;;;;2047520;28;20715;-67
2024/02/26 02:08:00;;;;;;;7.00;4.23;;;;;21.60;98803.00;;;;2048331;28;20676;-67
2024/02/26 02:09:06;;;;;;;6.27;4.10;;;;;21.50;98727.00;;;;2047186;28;20212;-67
2024/02/26 02:10:06;;;;;;;6.00;3.60;;;;;21.50;98795.00;;;;2040201;29;20776;-67
2024/02/26 02:11:07;;;;;;;5.10;3.70;;;;;21.50;98799.00;;;;2030567;29;20273;-67
2024/02/26 02:12:07;;;;;;;5.83;3.67;;;;;21.50;98784.00;;;;2038982;29;20201;-67
2024/02/26 02:13:07;;;;;;;5.30;3.50;;;;;21.50;98788.00;;;;2031718;29;20205;-67
2024/02/26 02:14:08;;;;;;;6.43;3.27;;;;;21.30;98792.00;;;;2038825;29;20259;-67
2024/02/26 02:15:08;;;;;;;6.40;4.13;;;;;21.50;98784.00;;;;2047675;29;20240;-67
2024/02/26 02:16:09;;;;;;;5.67;3.73;;;;;21.50;98798.00;;;;2037210;28;20263;-67
2024/02/26 02:17:09;;;;;;;5.10;3.40;;;;;21.60;98803.00;;;;2047602;29;20709;-67
2024/02/26 02:18:09;;;;;;;5.27;3.33;;;;;21.50;98798.00;;;;2048444;28;20200;-67
2024/02/26 02:19:10;;;;;;;5.50;3.90;;;;;21.50;98793.00;;;;2047712;28;20204;-67
2024/02/26 02:20:15;;;;;;;6.83;3.57;;;;;21.50;98796.00;;;;2047060;28;20205;-67
2024/02/26 02:21:16;;;;;;;5.35;3.45;;;;;21.50;98800.00;;;;2038591;28;20232;-67
2024/02/26 02:22:16;;;;;;;5.57;3.40;;;;;21.50;98794.00;;;;2048387;28;20236;-67
2024/02/26 02:23:16;;;;;;;6.57;3.70;;;;;21.50;98786.00;;;;2048048;28;20231;-67
2024/02/26 02:24:16;;;;;;;5.63;3.43;;;;;21.50;98783.00;;;;2048121;28;20616;-67
2024/02/26 02:25:17;;;;;;;4.50;3.23;;;;;21.50;98792.00;;;;2047745;28;20707;-67
2024/02/26 02:26:17;;;;;;;5.00;3.03;;;;;21.40;98777.00;;;;2038290;28;20711;-67
2024/02/26 02:27:18;;;;;;;5.50;3.30;;;;;21.40;98799.00;;;;2047503;29;20213;-67
2024/02/26 02:28:18;;;;;;;5.60;2.93;;;;;21.50;98786.00;;;;2046350;28;20208;-67
2024/02/26 02:29:18;;;;;;;4.63;2.87;;;;;21.50;98794.00;;;;2046868;28;20311;-67
2024/02/26 02:30:19;;;;;;;5.80;3.57;;;;;21.50;98801.00;;;;2047391;29;20236;-67
2024/02/26 02:31:19;;;;;;;5.30;3.47;;;;;21.40;98794.00;;;;2038446;28;20268;-67
2024/02/26 02:32:20;;;;;;;4.20;2.83;;;;;21.40;98794.00;;;;2047064;29;20216;-67
2024/02/26 02:33:20;;;;;;;6.90;3.60;;;;;21.40;98795.00;;;;2046752;28;20208;-67
2024/02/26 02:34:21;;;;;;;5.97;3.30;;;;;21.50;98811.00;;;;2046747;28;20284;-67
2024/02/26 02:35:21;;;;;;;5.00;3.00;;;;;21.40;98806.00;;;;2046921;28;20240;-67
2024/02/26 02:36:22;;;;;;;5.23;3.37;;;;;21.50;98795.00;;;;2037801;29;20763;-67
2024/02/26 02:37:22;;;;;;;4.73;3.00;;;;;21.50;98808.00;;;;2047251;29;20618;-67
2024/02/26 02:38:23;;;;;;;5.37;3.40;;;;;21.50;98795.00;;;;2046180;28;20223;-67
2024/02/26 02:39:24;;;;;;;6.78;3.20;;;;;21.50;98800.00;;;;2048293;28;20295;-67
2024/02/26 02:40:24;;;;;;;4.30;2.80;;;;;21.50;98804.00;;;;2047076;28;20227;-67
2024/02/26 02:41:26;;;;;;;5.07;2.77;;;;;21.50;98808.00;;;;2040758;28;20277;-67
2024/02/26 02:42:26;;;;;;;4.43;2.90;;;;;21.50;98809.00;;;;2047039;28;20568;-67
2024/02/26 02:43:26;;;;;;;4.57;2.90;;;;;21.40;98816.00;;;;2048147;28;20235;-67
2024/02/26 02:44:27;;;;;;;5.13;2.90;;;;;21.50;98806.00;;;;2045521;28;20240;-67
2024/02/26 02:45:28;;;;;;;4.10;2.43;;;;;21.50;98814.00;;;;2044998;28;20247;-67
2024/02/26 02:46:28;;;;;;;4.90;2.95;;;;;21.50;98802.00;;;;2038633;28;20216;-67
2024/02/26 02:47:29;;;;;;;5.37;2.90;;;;;21.50;98816.00;;;;2045506;28;20222;-67
2024/02/26 02:48:29;;;;;;;4.90;3.00;;;;;21.40;98804.00;;;;2048107;28;20220;-67
2024/02/26 02:49:29;;;;;;;5.00;2.90;;;;;21.40;98802.00;;;;2047429;28;20260;-67
2024/02/26 02:50:30;;;;;;;3.57;2.70;;;;;21.40;98807.00;;;;2044317;28;20216;-67
2024/02/26 02:51:30;;;;;;;5.70;2.97;;;;;21.50;98804.00;;;;2036847;28;20263;-67
2024/02/26 02:52:30;;;;;;;4.33;2.63;;;;;21.40;98808.00;;;;2045294;28;20250;-67
2024/02/26 02:53:31;;;;;;;4.37;2.83;;;;;21.40;98806.00;;;;2047832;28;20248;-67
2024/02/26 02:54:31;;;;;;;4.23;2.63;;;;;21.40;98808.00;;;;2047607;28;20220;-67
2024/02/26 02:55:31;;;;;;;4.30;2.90;;;;;21.40;98814.00;;;;2046766;28;20224;-67
2024/02/26 02:56:32;;;;;;;4.47;2.60;;;;;21.40;98813.00;;;;2043852;28;20263;-67
2024/02/26 02:57:32;;;;;;;4.00;2.60;;;;;21.40;98809.00;;;;2054442;28;20239;-67
2024/02/26 02:58:33;;;;;;;4.43;2.50;;;;;21.40;98809.00;;;;2049921;28;20247;-67
2024/02/26 02:59:33;;;;;;;3.93;2.57;;;;;21.40;98816.00;;;;2047025;28;20226;-67
2024/02/26 03:00:33;;;;;;;3.57;2.40;;;;;21.40;98815.00;;;;2048230;28;20223;-67
2024/02/26 03:01:33;;;;;;;5.13;2.73;;;;;21.40;98821.00;;;;2043746;28;20236;-67
2024/02/26 03:02:35;;;;;;;3.43;2.30;;;;;21.40;98815.00;;;;2055388;28;20212;-67
2024/02/26 03:03:37;;;;;;;5.15;2.40;;;;;21.40;98812.00;;;;2046613;28;20231;-67
2024/02/26 03:04:37;;;;;;;4.45;2.67;;;;;21.40;98812.00;;;;2047118;28;20220;-67
2024/02/26 03:05:37;;;;;;;4.70;2.33;;;;;21.40;98817.00;;;;2048101;28;20234;-67
2024/02/26 03:06:38;;;;;;;4.10;2.53;;;;;21.40;98815.00;;;;2037783;28;20219;-67
2024/02/26 03:07:38;;;;;;;3.73;2.33;;;;;21.40;98824.00;;;;2047909;28;20332;-67
2024/02/26 03:08:39;;;;;;;3.33;2.33;;;;;21.40;98831.00;;;;2046379;28;20259;-67
2024/02/26 03:09:39;;;;;;;3.90;2.28;;;;;21.40;98825.00;;;;2047967;28;20220;-67
2024/02/26 03:10:40;;;;;;;5.80;2.57;;;;;21.40;98826.00;;;;2045823;28;20230;-67
2024/02/26 03:11:40;;;;;;;3.83;2.43;;;;;21.40;98823.00;;;;2037944;28;20217;-67
2024/02/26 03:12:40;;;;;;;3.80;2.40;;;;;21.40;98823.00;;;;2040085;29;20223;-67
2024/02/26 03:13:41;;;;;;;3.10;2.03;;;;;21.40;98827.00;;;;2045881;28;20212;-67
2024/02/26 03:14:41;;;;;;;4.00;2.17;;;;;21.40;98828.00;;;;2046770;28;20224;-67
2024/02/26 03:15:42;;;;;;;4.17;2.50;;;;;21.40;98824.00;;;;2046666;28;20212;-67
2024/02/26 03:16:42;;;;;;;4.10;2.60;;;;;21.40;98824.00;;;;2037552;29;20227;-67
2024/02/26 03:17:42;;;;;;;3.53;2.07;;;;;21.40;98818.00;;;;2047740;28;20703;-67
2024/02/26 03:18:43;;;;;;;3.47;1.87;;;;;21.40;98822.00;;;;2044175;28;20587;-67
2024/02/26 03:19:46;;;;;;;3.60;1.97;;;;;21.40;98819.00;;;;2047822;28;20246;-67
2024/02/26 03:20:47;;;;;;;4.00;2.38;;;;;21.40;98838.00;;;;2046260;28;20224;-67
2024/02/26 03:21:47;;;;;;;4.77;2.53;;;;;21.40;98826.00;;;;2037336;28;20216;-67
2024/02/26 03:22:47;;;;;;;3.57;2.40;;;;;21.30;98820.00;;;;2046066;28;20224;-67
2024/02/26 03:23:48;;;;;;;3.90;2.67;;;;;21.40;98826.00;;;;2044597;28;20217;-67
2024/02/26 03:24:48;;;;;;;3.67;2.07;;;;;21.30;98820.00;;;;2046525;28;20239;-67
2024/02/26 03:25:48;;;;;;;3.60;2.50;;;;;21.40;98824.00;;;;2038395;28;20224;-67
2024/02/26 03:26:49;;;;;;;4.00;2.30;;;;;21.40;98821.00;;;;2047270;28;20267;-67
2024/02/26 03:27:50;;;;;;;3.43;2.27;;;;;21.40;98822.00;;;;2047001;28;20223;-67
2024/02/26 03:28:50;;;;;;;3.57;2.17;;;;;21.40;98819.00;;;;2047781;28;20223;-67
2024/02/26 03:29:51;;;;;;;3.90;2.50;;;;;21.40;98826.00;;;;2051349;28;20993;-67
2024/02/26 03:30:51;;;;;;;4.23;2.17;;;;;21.30;98816.00;;;;2036985;28;20559;-67
2024/02/26 03:31:51;;;;;;;4.23;2.07;;;;;21.30;98828.00;;;;2047887;28;20842;-67
2024/02/26 03:32:52;;;;;;;3.33;2.10;;;;;21.30;98825.00;;;;2046611;28;20682;-67
2024/02/26 03:33:52;;;;;;;3.20;1.93;;;;;21.30;98823.00;;;;2047346;28;20672;-67
2024/02/26 03:34:55;;;;;;;3.37;1.90;;;;;21.30;98818.00;;;;2046782;28;20244;-67
2024/02/26 03:35:56;;;;;;;3.08;1.92;;;;;21.30;98825.00;;;;2029526;29;20572;-67
2024/02/26 03:36:56;;;;;;;3.50;2.23;;;;;21.30;98825.00;;;;2036190;29;20226;-67
2024/02/26 03:37:57;;;;;;;3.87;1.83;;;;;21.30;98821.00;;;;2045469;28;20216;-67
2024/02/26 03:38:57;;;;;;;4.30;2.23;;;;;21.30;98819.00;;;;2047811;28;20208;-67
2024/02/26 03:39:57;;;;;;;4.00;2.20;;;;;21.30;98816.00;;;;2048239;28;20259;-67
2024/02/26 03:40:58;;;;;;;3.03;1.60;;;;;21.30;98805.00;;;;2044207;28;20285;-67
2024/02/26 03:41:58;;;;;;;3.33;1.90;;;;;21.30;98813.00;;;;2052928;28;20212;-67
2024/02/26 03:42:59;;;;;;;3.93;2.07;;;;;21.30;98816.00;;;;2050524;28;20262;-67
2024/02/26 03:43:59;;;;;;;3.53;1.85;;;;;21.30;98807.00;;;;2042006;28;20220;-67
2024/02/26 03:45:00;;;;;;;6.13;2.30;;;;;21.30;98811.00;;;;2047209;28;20250;-67
2024/02/26 03:46:00;;;;;;;3.33;1.93;;;;;21.30;98801.00;;;;2045388;28;20207;-67
2024/02/26 03:47:00;;;;;;;3.53;1.90;;;;;21.20;98804.00;;;;2053236;28;20219;-67
2024/02/26 03:48:01;;;;;;;3.37;1.80;;;;;21.20;98799.00;;;;2053198;28;20250;-67
2024/02/26 03:49:01;;;;;;;3.50;1.97;;;;;21.20;98804.00;;;;2047921;28;20228;-67
2024/02/26 03:50:01;;;;;;;3.37;1.77;;;;;21.20;98809.00;;;;2047274;28;20247;-67
2024/02/26 03:51:02;;;;;;;3.30;1.93;;;;;21.30;98802.00;;;;2038300;28;20216;-67
2024/02/26 03:52:02;;;;;;;4.10;1.87;;;;;21.30;98796.00;;;;2047036;28;20238;-67
2024/02/26 03:53:02;;;;;;;3.33;2.00;;;;;21.30;98799.00;;;;2047788;28;20303;-67
2024/02/26 03:54:03;;;;;;;2.97;1.73;;;;;21.30;98805.00;;;;2047335;28;20228;-67
2024/02/26 03:55:03;;;;;;;3.53;2.13;;;;;21.30;98798.00;;;;2047383;28;20244;-67
2024/02/26 03:56:05;;;;;;;3.00;1.57;;;;;21.30;98808.00;;;;2038345;28;20290;-67
2024/02/26 03:57:05;;;;;;;3.22;1.70;;;;;21.30;98800.00;;;;2047105;28;20555;-67
2024/02/26 03:58:05;;;;;;;2.67;1.87;;;;;21.30;98728.00;;;;2045925;29;20234;-67
2024/02/26 03:59:06;;;;;;;4.80;2.03;;;;;21.30;98811.00;;;;2038645;29;20225;-67
2024/02/26 04:00:06;;;;;;;3.50;1.67;;;;;21.20;98813.00;;;;2039230;29;20240;-67
2024/02/26 04:01:07;;;;;;;3.67;1.70;;;;;21.20;98815.00;;;;2039031;28;20243;-67
2024/02/26 04:02:09;;;;;;;2.90;1.57;;;;;21.20;98806.00;;;;2042053;28;20825;-67
2024/02/26 04:03:10;;;;;;;3.63;1.80;;;;;21.20;98805.00;;;;2039058;29;21012;-67
2024/02/26 04:04:10;;;;;;;3.03;1.63;;;;;21.20;98809.00;;;;2043809;28;20231;-67
2024/02/26 04:05:11;;;;;;;3.10;1.73;;;;;21.20;98811.00;;;;2047534;28;20230;-67
2024/02/26 04:06:14;;;;;;;3.37;1.47;;;;;21.20;98809.00;;;;2034231;28;20224;-67
2024/02/26 04:07:14;;;;;;;3.20;2.03;;;;;21.20;98806.00;;;;2047200;28;20527;-67
2024/02/26 04:08:14;;;;;;;2.87;1.33;;;;;21.20;98810.00;;;;2047105;28;20226;-67
2024/02/26 04:09:15;;;;;;;2.63;1.57;;;;;21.20;98807.00;;;;2046909;28;20687;-67
2024/02/26 04:10:15;;;;;;;3.40;1.70;;;;;21.30;98798.00;;;;2047803;28;20714;-67
2024/02/26 04:11:18;;;;;;;2.70;1.57;;;;;21.20;98801.00;;;;2044531;28;20236;-67
2024/02/26 04:12:18;;;;;;;2.83;1.67;;;;;21.20;98802.00;;;;2049623;28;20255;-67
2024/02/26 04:13:19;;;;;;;3.00;1.73;;;;;21.20;98807.00;;;;2048379;28;20231;-67
2024/02/26 04:14:20;;;;;;;2.95;1.50;;;;;21.30;98811.00;;;;2047402;28;20227;-67
2024/02/26 04:15:20;;;;;;;2.90;1.40;;;;;21.20;98811.00;;;;2047668;28;20269;-67
2024/02/26 04:16:20;;;;;;;2.67;1.57;;;;;21.20;98804.00;;;;2036602;28;20228;-67
2024/02/26 04:17:21;;;;;;;3.07;1.87;;;;;21.20;98809.00;;;;2047683;28;20220;-67
2024/02/26 04:18:21;;;;;;;2.37;1.60;;;;;21.10;98803.00;;;;2046780;28;20698;-67
2024/02/26 04:19:21;;;;;;;3.03;1.70;;;;;21.20;98812.00;;;;2047608;28;20703;-67
2024/02/26 04:20:22;;;;;;;2.77;1.30;;;;;21.20;98810.00;;;;2046538;28;20840;-67
2024/02/26 04:21:22;;;;;;;2.50;1.53;;;;;21.20;98809.00;;;;2038148;28;20251;-67
2024/02/26 04:22:22;;;;;;;2.87;1.37;;;;;21.20;98809.00;;;;2046662;28;20642;-67
2024/02/26 04:23:23;;;;;;;2.93;1.40;;;;;21.20;98815.00;;;;2046383;28;20711;-67
2024/02/26 04:24:23;;;;;;;3.10;1.73;;;;;21.10;98812.00;;;;2047046;28;20220;-67
2024/02/26 04:25:23;;;;;;;3.30;1.53;;;;;21.20;98817.00;;;;2047127;28;20320;-67
2024/02/26 04:26:24;;;;;;;3.33;1.87;;;;;21.20;98817.00;;;;2038147;28;20228;-67
2024/02/26 04:27:24;;;;;;;2.70;1.47;;;;;21.20;98819.00;;;;2046363;28;20251;-67
2024/02/26 04:28:29;;;;;;;2.73;1.40;;;;;21.20;98817.00;;;;2046632;28;20216;-67
2024/02/26 04:29:29;;;;;;;2.75;1.50;;;;;21.10;98813.00;;;;2047526;28;20228;-67
2024/02/26 04:30:30;;;;;;;2.60;1.23;;;;;21.20;98816.00;;;;2047128;28;20259;-67
2024/02/26 04:31:32;;;;;;;2.93;1.50;;;;;21.20;98816.00;;;;2038322;28;20247;-67
2024/02/26 04:32:34;;;;;;;2.60;1.40;;;;;21.20;98814.00;;;;2046653;28;20350;-67
2024/02/26 04:33:34;;;;;;;3.35;1.40;;;;;21.10;98815.00;;;;2047441;28;20228;-67
2024/02/26 04:34:35;;;;;;;2.27;1.20;;;;;21.10;98810.00;;;;2046590;28;20660;-67
2024/02/26 04:35:35;;;;;;;2.63;1.30;;;;;21.20;98811.00;;;;2045421;29;20228;-67
2024/02/26 04:36:35;;;;;;;3.27;1.30;;;;;21.20;98807.00;;;;2035276;29;20221;-67
2024/02/26 04:37:36;;;;;;;2.40;1.30;;;;;21.20;98812.00;;;;2046957;28;20235;-67
2024/02/26 04:38:36;;;;;;;2.43;1.37;;;;;21.20;98809.00;;;;2047477;28;20255;-67
2024/02/26 04:39:36;;;;;;;3.40;1.43;;;;;21.20;98812.00;;;;2046810;28;20224;-67
2024/02/26 04:40:37;;;;;;;2.93;1.40;;;;;21.20;98812.00;;;;2047582;28;20239;-67
2024/02/26 04:41:37;;;;;;;2.63;1.33;;;;;21.10;98809.00;;;;2042413;28;20320;-67
2024/02/26 04:42:38;;;;;;;2.67;1.43;;;;;21.10;98820.00;;;;2054749;28;20219;-67
2024/02/26 04:43:42;;;;;;;2.93;1.47;;;;;21.10;98807.00;;;;2048490;28;20593;-67
2024/02/26 04:44:42;;;;;;;2.80;1.45;;;;;21.10;98815.00;;;;2047110;28;20667;-67
2024/02/26 04:45:43;;;;;;;3.00;1.47;;;;;21.10;98818.00;;;;2047364;28;20216;-67
2024/02/26 04:46:43;;;;;;;2.90;1.57;;;;;21.20;98820.00;;;;2040619;28;20212;-67
2024/02/26 04:47:43;;;;;;;2.93;1.33;;;;;21.10;98822.00;;;;2045013;28;20297;-67
2024/02/26 04:48:46;;;;;;;4.13;1.47;;;;;21.10;98825.00;;;;2040221;29;20228;-67
2024/02/26 04:49:46;;;;;;;2.70;1.48;;;;;21.10;98827.00;;;;2046984;28;20730;-67
2024/02/26 04:50:47;;;;;;;3.47;1.30;;;;;21.20;98833.00;;;;2047247;28;20224;-67
2024/02/26 04:51:48;;;;;;;2.47;1.50;;;;;21.10;98769.00;;;;2034882;28;20264;-67
2024/02/26 04:52:49;;;;;;;2.90;1.50;;;;;21.10;98827.00;;;;2047923;29;20228;-67
2024/02/26 04:53:49;;;;;;;2.53;1.20;;;;;21.10;98833.00;;;;2047540;28;20224;-67
2024/02/26 04:54:49;;;;;;;2.70;1.23;;;;;21.10;98843.00;;;;2048256;28;20212;-67
2024/02/26 04:55:50;;;;;;;3.00;1.43;;;;;21.20;98842.00;;;;2038641;28;20243;-67
2024/02/26 04:56:50;;;;;;;2.93;1.40;;;;;21.20;98837.00;;;;2047325;28;20244;-67
2024/02/26 04:57:50;;;;;;;2.20;1.20;;;;;21.20;98852.00;;;;2032451;29;20212;-67
2024/02/26 04:58:51;;;;;;;1.90;0.80;;;;;21.10;98851.00;;;;2039882;29;20643;-67
2024/02/26 04:59:51;;;;;;;2.23;0.93;;;;;21.20;98845.00;;;;2049017;28;20579;-67
2024/02/26 05:00:52;;;;;;;2.73;1.33;;;;;21.10;98843.00;;;;2039236;28;20691;-67
2024/02/26 05:01:52;;;;;;;2.83;1.10;;;;;21.10;98846.00;;;;2048502;28;20216;-67
2024/02/26 05:02:53;;;;;;;2.30;1.13;;;;;21.10;98853.00;;;;2049005;28;20208;-67